createdAt,value
2018-02-11T00:01:16.848Z,3.40
2018-02-11T00:03:45.104Z,3.40
2018-02-11T00:06:12.605Z,3.40
2018-02-11T00:08:40.119Z,3.40
2018-02-11T00:11:07.583Z,3.30
2018-02-11T00:13:35.828Z,3.30
2018-02-11T00:16:03.386Z,3.30
2018-02-11T00:18:30.859Z,3.30
2018-02-11T00:20:58.333Z,3.30
2018-02-11T00:23:25.869Z,3.30
2018-02-11T00:25:53.438Z,3.40
2018-02-11T00:28:20.933Z,3.30
2018-02-11T00:30:49.200Z,3.40
2018-02-11T00:33:17.439Z,3.40
2018-02-11T00:35:44.919Z,3.30
2018-02-11T00:38:12.496Z,3.40
2018-02-11T00:40:39.957Z,3.40
2018-02-11T00:43:08.214Z,3.50
2018-02-11T00:45:35.699Z,3.40
2018-02-11T00:48:04.049Z,3.50
2018-02-11T00:50:31.610Z,3.50
2018-02-11T00:52:59.077Z,3.60
2018-02-11T00:55:27.355Z,3.60
2018-02-11T00:57:54.833Z,3.50
2018-02-11T01:00:23.281Z,3.40
2018-02-11T01:02:50.752Z,3.40
2018-02-11T01:05:18.209Z,3.40
2018-02-11T01:07:46.063Z,3.40
2018-02-11T01:10:13.632Z,3.40
2018-02-11T01:12:41.100Z,3.40
2018-02-11T01:15:08.613Z,3.40
2018-02-11T01:17:36.072Z,3.40
2018-02-11T01:20:03.553Z,3.40
2018-02-11T01:22:31.047Z,3.40
2018-02-11T01:24:59.299Z,3.30
2018-02-11T01:27:26.839Z,3.30
2018-02-11T01:29:54.587Z,3.40
2018-02-11T01:32:22.379Z,3.30
2018-02-11T01:34:49.827Z,3.20
2018-02-11T01:37:17.320Z,3.10
2018-02-11T01:39:45.598Z,3.00
2018-02-11T01:42:13.855Z,3.00
2018-02-11T01:44:41.347Z,3.00
2018-02-11T01:47:09.605Z,3.10
2018-02-11T01:49:37.059Z,3.00
2018-02-11T01:52:04.725Z,3.00
2018-02-11T01:54:32.159Z,3.00
2018-02-11T01:56:59.640Z,2.90
2018-02-11T01:59:27.114Z,2.90
2018-02-11T02:01:55.347Z,3.00
2018-02-11T02:04:22.817Z,2.90
2018-02-11T02:06:50.332Z,3.00
2018-02-11T02:09:17.892Z,3.00
2018-02-11T02:11:45.388Z,2.90
2018-02-11T02:14:12.921Z,2.90
2018-02-11T02:16:40.424Z,2.90
2018-02-11T02:19:07.990Z,2.90
2018-02-11T02:21:35.496Z,2.90
2018-02-11T02:24:02.956Z,3.00
2018-02-11T02:26:30.406Z,3.00
2018-02-11T02:28:57.868Z,3.00
2018-02-11T02:31:25.360Z,2.90
2018-02-11T02:33:53.043Z,2.90
2018-02-11T02:36:20.857Z,2.90
2018-02-11T02:38:48.355Z,2.90
2018-02-11T02:41:15.823Z,3.00
2018-02-11T02:43:43.386Z,3.00
2018-02-11T02:46:10.836Z,3.00
2018-02-11T02:48:38.302Z,3.00
2018-02-11T02:51:05.751Z,3.00
2018-02-11T02:53:33.203Z,3.10
2018-02-11T02:56:00.667Z,3.20
2018-02-11T02:58:28.227Z,3.10
2018-02-11T03:00:55.708Z,3.10
2018-02-11T03:03:23.206Z,3.10
2018-02-11T03:05:50.707Z,3.20
2018-02-11T03:08:18.179Z,3.20
2018-02-11T03:10:46.406Z,3.30
2018-02-11T03:13:13.884Z,3.30
2018-02-11T03:15:41.342Z,3.30
2018-02-11T03:18:08.825Z,3.40
2018-02-11T03:20:36.308Z,3.40
2018-02-11T03:23:03.783Z,3.40
2018-02-11T03:25:31.252Z,3.50
2018-02-11T03:27:58.769Z,3.50
2018-02-11T03:30:26.200Z,3.50
2018-02-11T03:32:53.650Z,3.60
2018-02-11T03:35:21.220Z,3.60
2018-02-11T03:37:48.690Z,3.70
2018-02-11T03:40:16.166Z,3.70
2018-02-11T03:42:44.752Z,3.70
2018-02-11T03:45:14.861Z,3.70
2018-02-11T03:47:42.347Z,3.70
2018-02-11T03:50:09.851Z,3.70
2018-02-11T03:52:37.302Z,3.80
2018-02-11T03:55:04.791Z,3.80
2018-02-11T03:57:32.335Z,3.80
2018-02-11T03:59:59.811Z,3.80
2018-02-11T04:02:27.274Z,3.80
2018-02-11T04:04:55.950Z,3.70
2018-02-11T04:07:23.395Z,3.70
2018-02-11T04:09:50.851Z,3.50
2018-02-11T04:12:18.323Z,3.50
2018-02-11T04:14:45.794Z,3.40
2018-02-11T04:17:14.012Z,3.30
2018-02-11T04:19:41.515Z,3.30
2018-02-11T04:22:08.959Z,3.30
2018-02-11T04:24:36.410Z,3.20
2018-02-11T04:27:03.972Z,3.30
2018-02-11T04:29:31.408Z,3.20
2018-02-11T04:31:58.855Z,3.20
2018-02-11T04:34:26.350Z,3.20
2018-02-11T04:36:53.824Z,3.10
2018-02-11T04:39:21.272Z,3.20
2018-02-11T04:41:48.739Z,3.10
2018-02-11T04:44:16.179Z,3.10
2018-02-11T04:46:43.715Z,3.10
2018-02-11T04:49:11.233Z,3.10
2018-02-11T04:51:39.500Z,3.20
2018-02-11T04:54:07.723Z,3.20
2018-02-11T04:56:35.246Z,3.10
2018-02-11T04:59:03.528Z,3.10
2018-02-11T05:01:31.736Z,3.20
2018-02-11T05:03:59.205Z,3.20
2018-02-11T05:06:26.752Z,3.20
2018-02-11T05:08:54.174Z,3.20
2018-02-11T05:11:22.494Z,3.30
2018-02-11T05:13:49.991Z,3.30
2018-02-11T05:16:17.466Z,3.30
2018-02-11T05:18:45.755Z,3.40
2018-02-11T05:21:13.991Z,3.40
2018-02-11T05:23:41.583Z,3.40
2018-02-11T05:26:09.819Z,3.40
2018-02-11T05:28:37.288Z,3.40
2018-02-11T05:31:04.764Z,3.40
2018-02-11T05:33:32.232Z,3.50
2018-02-11T05:36:00.458Z,3.50
2018-02-11T05:38:27.915Z,3.50
2018-02-11T05:40:55.415Z,3.60
2018-02-11T05:43:22.858Z,3.50
2018-02-11T05:45:50.332Z,3.40
2018-02-11T05:48:17.798Z,3.40
2018-02-11T05:50:46.012Z,3.40
2018-02-11T05:53:13.471Z,3.30
2018-02-11T05:55:41.067Z,3.30
2018-02-11T05:58:08.538Z,3.30
2018-02-11T06:00:36.748Z,3.30
2018-02-11T06:03:04.274Z,3.20
2018-02-11T06:05:31.734Z,3.30
2018-02-11T06:07:59.166Z,3.30
2018-02-11T06:10:26.631Z,3.30
2018-02-11T06:12:54.086Z,3.40
2018-02-11T06:15:21.554Z,3.40
2018-02-11T06:17:49.043Z,3.40
2018-02-11T06:20:17.278Z,3.50
2018-02-11T06:22:44.724Z,3.50
2018-02-11T06:25:12.318Z,3.40
2018-02-11T06:27:39.755Z,3.40
2018-02-11T06:30:07.205Z,3.40
2018-02-11T06:32:34.666Z,3.40
2018-02-11T06:35:02.122Z,3.40
2018-02-11T06:37:29.587Z,3.30
2018-02-11T06:39:57.375Z,3.40
2018-02-11T06:42:24.822Z,3.30
2018-02-11T06:44:52.275Z,3.30
2018-02-11T06:47:19.823Z,3.30
2018-02-11T06:49:47.278Z,3.30
2018-02-11T06:52:14.743Z,3.30
2018-02-11T06:54:42.232Z,3.30
2018-02-11T06:57:09.667Z,3.30
2018-02-11T06:59:37.152Z,3.40
2018-02-11T07:02:04.894Z,3.40
2018-02-11T07:04:32.347Z,3.30
2018-02-11T07:06:59.795Z,3.30
2018-02-11T07:09:27.268Z,3.40
2018-02-11T07:11:54.720Z,3.40
2018-02-11T07:14:22.163Z,3.40
2018-02-11T07:16:49.631Z,3.40
2018-02-11T07:19:17.096Z,3.40
2018-02-11T07:21:44.554Z,3.40
2018-02-11T07:24:12.119Z,3.40
2018-02-11T07:26:39.571Z,3.50
2018-02-11T07:29:07.046Z,3.40
2018-02-11T07:31:34.499Z,3.50
2018-02-11T07:34:01.943Z,3.50
2018-02-11T07:36:29.422Z,3.50
2018-02-11T07:38:56.891Z,3.50
2018-02-11T07:41:25.186Z,3.60
2018-02-11T07:43:53.398Z,3.60
2018-02-11T07:46:20.901Z,3.60
2018-02-11T07:48:49.168Z,3.60
2018-02-11T07:51:16.611Z,3.60
2018-02-11T07:53:44.093Z,3.60
2018-02-11T07:56:11.531Z,3.70
2018-02-11T07:58:39.003Z,3.60
2018-02-11T08:01:06.455Z,3.70
2018-02-11T08:03:33.915Z,3.70
2018-02-11T08:06:01.378Z,3.70
2018-02-11T08:08:29.051Z,3.70
2018-02-11T08:10:57.319Z,3.80
2018-02-11T08:13:24.756Z,3.70
2018-02-11T08:15:52.229Z,3.80
2018-02-11T08:18:19.687Z,3.80
2018-02-11T08:20:47.131Z,3.80
2018-02-11T08:23:14.602Z,3.80
2018-02-11T08:25:42.149Z,3.70
2018-02-11T08:28:09.602Z,3.70
2018-02-11T08:30:37.273Z,3.70
2018-02-11T08:33:04.710Z,3.90
2018-02-11T08:35:32.183Z,3.90
2018-02-11T08:37:59.691Z,3.90
2018-02-11T08:40:27.135Z,3.90
2018-02-11T08:42:55.667Z,3.80
2018-02-11T08:45:23.176Z,3.80
2018-02-11T08:47:51.418Z,3.70
2018-02-11T08:50:18.862Z,3.70
2018-02-11T08:52:46.400Z,3.70
2018-02-11T08:55:13.869Z,3.70
2018-02-11T08:57:41.339Z,3.70
2018-02-11T09:00:08.817Z,3.70
2018-02-11T09:02:36.254Z,3.70
2018-02-11T09:05:03.717Z,3.70
2018-02-11T09:07:31.189Z,3.80
2018-02-11T09:09:58.684Z,3.80
2018-02-11T09:12:26.910Z,3.80
2018-02-11T09:14:54.411Z,3.80
2018-02-11T09:17:22.727Z,3.90
2018-02-11T09:19:50.187Z,3.90
2018-02-11T09:22:17.664Z,4.00
2018-02-11T09:24:45.346Z,3.90
2018-02-11T09:27:12.820Z,4.00
2018-02-11T09:29:41.144Z,4.00
2018-02-11T09:32:08.567Z,4.00
2018-02-11T09:34:36.814Z,4.20
2018-02-11T09:37:04.566Z,4.20
2018-02-11T09:39:32.035Z,4.30
2018-02-11T09:41:59.480Z,4.30
2018-02-11T09:44:27.320Z,4.30
2018-02-11T09:46:54.820Z,4.30
2018-02-11T09:49:22.289Z,4.30
2018-02-11T09:51:49.772Z,4.40
2018-02-11T09:54:18.006Z,4.70
2018-02-11T09:56:45.671Z,4.70
2018-02-11T09:59:13.131Z,4.80
2018-02-11T10:01:40.585Z,4.80
2018-02-11T10:04:08.076Z,4.80
2018-02-11T10:06:36.298Z,4.80
2018-02-11T10:09:03.755Z,4.80
2018-02-11T10:11:31.236Z,4.90
2018-02-11T10:13:58.814Z,4.90
2018-02-11T10:16:26.258Z,5.00
2018-02-11T10:18:53.730Z,5.10
2018-02-11T10:21:21.573Z,5.20
2018-02-11T10:23:49.243Z,5.30
2018-02-11T10:26:16.873Z,5.30
2018-02-11T10:28:44.331Z,5.50
2018-02-11T10:31:11.800Z,5.70
2018-02-11T10:33:39.332Z,5.90
2018-02-11T10:36:06.771Z,6.10
2018-02-11T10:38:35.056Z,6.40
2018-02-11T10:41:02.743Z,6.40
2018-02-11T10:43:30.223Z,6.40
2018-02-11T10:45:57.688Z,6.40
2018-02-11T10:48:25.198Z,6.50
2018-02-11T10:50:52.656Z,6.60
2018-02-11T10:53:20.907Z,7.10
2018-02-11T10:55:48.571Z,7.10
2018-02-11T10:58:16.043Z,7.30
2018-02-11T11:00:44.309Z,7.50
2018-02-11T11:03:12.599Z,7.50
2018-02-11T11:05:40.898Z,7.40
2018-02-11T11:08:08.394Z,7.40
2018-02-11T11:10:36.012Z,7.40
2018-02-11T11:13:04.361Z,7.10
2018-02-11T11:15:32.126Z,7.10
2018-02-11T11:17:59.889Z,7.00
2018-02-11T11:20:27.460Z,6.90
2018-02-11T11:22:55.708Z,7.10
2018-02-11T11:25:23.294Z,7.10
2018-02-11T11:27:50.759Z,7.00
2018-02-11T11:30:19.089Z,7.00
2018-02-11T11:32:46.631Z,7.00
2018-02-11T11:35:14.155Z,7.00
2018-02-11T11:37:42.531Z,7.20
2018-02-11T11:40:10.898Z,7.30
2018-02-11T11:42:38.432Z,7.30
2018-02-11T11:45:06.385Z,7.40
2018-02-11T11:47:33.895Z,7.40
2018-02-11T11:50:01.474Z,7.40
2018-02-11T11:52:29.775Z,7.30
2018-02-11T11:54:57.386Z,7.30
2018-02-11T11:57:24.955Z,7.30
2018-02-11T11:59:54.036Z,7.20
2018-02-11T12:02:21.894Z,7.20
2018-02-11T12:04:50.021Z,7.20
2018-02-11T12:07:17.527Z,7.00
2018-02-11T12:09:45.115Z,6.70
2018-02-11T12:12:13.360Z,5.40
2018-02-11T12:14:40.962Z,5.40
2018-02-11T12:17:09.233Z,4.60
2018-02-11T12:19:37.543Z,4.40
2018-02-11T12:22:05.230Z,4.40
2018-02-11T12:24:32.712Z,4.40
2018-02-11T12:27:00.459Z,4.40
2018-02-11T12:29:28.036Z,4.50
2018-02-11T12:31:55.615Z,4.50
2018-02-11T12:34:23.906Z,4.60
2018-02-11T12:36:52.222Z,4.60
2018-02-11T12:39:19.894Z,4.60
2018-02-11T12:41:47.695Z,4.70
2018-02-11T12:44:15.148Z,4.70
2018-02-11T12:46:42.733Z,4.70
2018-02-11T12:49:10.178Z,4.70
2018-02-11T12:51:38.731Z,4.80
2018-02-11T12:54:06.289Z,4.80
2018-02-11T12:56:33.954Z,4.90
2018-02-11T12:59:01.511Z,4.90
2018-02-11T13:01:29.151Z,5.00
2018-02-11T13:03:56.664Z,5.00
2018-02-11T13:06:25.042Z,5.20
2018-02-11T13:08:53.370Z,5.30
2018-02-11T13:11:21.398Z,5.30
2018-02-11T13:13:49.625Z,5.30
2018-02-11T13:16:17.128Z,5.30
2018-02-11T13:18:45.685Z,5.50
2018-02-11T13:21:13.173Z,5.40
2018-02-11T13:23:41.011Z,5.50
2018-02-11T13:26:08.462Z,5.60
2018-02-11T13:28:35.971Z,5.60
2018-02-11T13:31:04.223Z,5.20
2018-02-11T13:33:31.707Z,5.20
2018-02-11T13:36:00.283Z,5.20
2018-02-11T13:38:27.908Z,5.20
2018-02-11T13:40:55.414Z,5.30
2018-02-11T13:43:24.076Z,5.30
2018-02-11T13:45:52.474Z,5.40
2018-02-11T13:48:19.999Z,5.40
2018-02-11T13:50:47.519Z,5.40
2018-02-11T13:53:15.053Z,5.40
2018-02-11T13:55:42.591Z,5.50
2018-02-11T13:58:10.055Z,5.50
2018-02-11T14:00:37.596Z,5.60
2018-02-11T14:03:05.115Z,5.70
2018-02-11T14:05:33.349Z,5.70
2018-02-11T14:08:01.923Z,5.80
2018-02-11T14:10:29.410Z,5.70
2018-02-11T14:12:57.781Z,5.90
2018-02-11T14:15:25.294Z,5.90
2018-02-11T14:17:52.782Z,6.00
2018-02-11T14:20:20.475Z,6.00
2018-02-11T14:22:48.778Z,6.00
2018-02-11T14:25:16.262Z,6.00
2018-02-11T14:27:43.721Z,6.00
2018-02-11T14:30:11.867Z,6.00
2018-02-11T14:32:39.353Z,6.00
2018-02-11T14:35:07.755Z,6.00
2018-02-11T14:37:36.085Z,6.10
2018-02-11T14:40:03.596Z,6.10
2018-02-11T14:42:32.025Z,6.10
2018-02-11T14:44:59.580Z,6.10
2018-02-11T14:47:27.082Z,6.10
2018-02-11T14:49:55.388Z,6.00
2018-02-11T14:52:23.617Z,5.80
2018-02-11T14:54:51.152Z,5.80
2018-02-11T14:57:18.633Z,5.70
2018-02-11T14:59:46.128Z,5.70
2018-02-11T15:02:13.651Z,5.60
2018-02-11T15:04:41.573Z,5.70
2018-02-11T15:07:09.901Z,5.90
2018-02-11T15:09:37.609Z,5.90
2018-02-11T15:12:05.860Z,5.70
2018-02-11T15:14:33.316Z,5.70
2018-02-11T15:17:00.910Z,5.70
2018-02-11T15:19:29.168Z,5.70
2018-02-11T15:21:57.894Z,5.70
2018-02-11T15:24:25.491Z,5.70
2018-02-11T15:26:54.557Z,5.70
2018-02-11T15:29:22.025Z,5.80
2018-02-11T15:31:50.772Z,5.80
2018-02-11T15:34:18.320Z,5.80
2018-02-11T15:36:45.779Z,5.90
2018-02-11T15:39:13.255Z,5.90
2018-02-11T15:41:40.731Z,5.90
2018-02-11T15:44:08.197Z,5.90
2018-02-11T15:46:36.654Z,5.90
2018-02-11T15:49:04.135Z,5.90
2018-02-11T15:51:31.632Z,5.90
2018-02-11T15:53:59.158Z,5.90
2018-02-11T15:56:27.694Z,5.70
2018-02-11T15:58:55.392Z,5.70
2018-02-11T16:01:23.667Z,5.80
2018-02-11T16:03:51.234Z,5.70
2018-02-11T16:06:19.826Z,5.80
2018-02-11T16:08:48.486Z,5.70
2018-02-11T16:11:16.176Z,5.70
2018-02-11T16:13:44.389Z,5.50
2018-02-11T16:16:12.138Z,5.50
2018-02-11T16:18:40.403Z,5.50
2018-02-11T16:21:08.661Z,5.40
2018-02-11T16:23:36.116Z,5.40
2018-02-11T16:26:03.580Z,5.40
2018-02-11T16:28:31.488Z,5.20
2018-02-11T16:30:59.059Z,5.30
2018-02-11T16:33:26.620Z,5.20
2018-02-11T16:35:54.149Z,5.10
2018-02-11T16:38:22.405Z,5.10
2018-02-11T16:40:49.909Z,5.10
2018-02-11T16:43:17.727Z,5.10
2018-02-11T16:45:45.184Z,5.10
2018-02-11T16:48:12.635Z,5.10
2018-02-11T16:50:40.212Z,5.10
2018-02-11T16:53:07.817Z,5.00
2018-02-11T16:55:35.397Z,5.00
2018-02-11T16:58:03.138Z,5.00
2018-02-11T17:00:31.037Z,5.00
2018-02-11T17:02:58.600Z,4.90
2018-02-11T17:05:26.320Z,4.90
2018-02-11T17:07:53.819Z,4.80
2018-02-11T17:10:21.537Z,4.80
2018-02-11T17:12:49.858Z,4.90
2018-02-11T17:15:17.399Z,4.80
2018-02-11T17:17:44.907Z,4.80
2018-02-11T17:20:13.288Z,4.70
2018-02-11T17:22:41.622Z,4.70
2018-02-11T17:25:09.088Z,4.70
2018-02-11T17:27:36.890Z,4.70
2018-02-11T17:30:04.365Z,4.70
2018-02-11T17:32:32.161Z,4.60
2018-02-11T17:34:59.823Z,4.60
2018-02-11T17:37:27.374Z,4.60
2018-02-11T17:39:55.045Z,4.60
2018-02-11T17:42:22.623Z,4.50
2018-02-11T17:44:50.192Z,4.50
2018-02-11T17:47:17.897Z,4.50
2018-02-11T17:49:46.215Z,4.50
2018-02-11T17:52:13.718Z,4.40
2018-02-11T17:54:42.834Z,4.40
2018-02-11T17:57:11.087Z,4.40
2018-02-11T17:59:38.539Z,4.40
2018-02-11T18:02:06.066Z,4.30
2018-02-11T18:04:33.560Z,4.30
2018-02-11T18:07:01.044Z,4.30
2018-02-11T18:09:29.272Z,4.30
2018-02-11T18:11:56.803Z,4.30
2018-02-11T18:14:24.394Z,4.30
2018-02-11T18:16:51.884Z,4.20
2018-02-11T18:19:19.549Z,4.20
2018-02-11T18:21:47.354Z,4.20
2018-02-11T18:24:14.861Z,4.20
2018-02-11T18:26:42.535Z,4.10
2018-02-11T18:29:10.008Z,4.10
2018-02-11T18:31:38.239Z,4.10
2018-02-11T18:34:06.034Z,4.10
2018-02-11T18:36:33.697Z,4.10
2018-02-11T18:39:01.216Z,4.10
2018-02-11T18:41:28.690Z,4.00
2018-02-11T18:43:56.575Z,4.00
2018-02-11T18:46:24.046Z,4.00
2018-02-11T18:48:52.456Z,4.00
2018-02-11T18:51:19.925Z,3.90
2018-02-11T18:53:47.437Z,4.00
2018-02-11T18:56:15.001Z,4.00
2018-02-11T18:58:42.765Z,4.00
2018-02-11T19:01:10.298Z,4.00
2018-02-11T19:03:37.792Z,3.90
2018-02-11T19:06:06.043Z,3.90
2018-02-11T19:08:33.535Z,3.90
2018-02-11T19:11:01.798Z,3.80
2018-02-11T19:13:29.311Z,3.80
2018-02-11T19:15:56.814Z,3.80
2018-02-11T19:18:24.375Z,3.70
2018-02-11T19:20:51.985Z,3.70
2018-02-11T19:23:19.960Z,3.70
2018-02-11T19:25:47.468Z,3.60
2018-02-11T19:28:15.739Z,3.60
2018-02-11T19:30:43.198Z,3.50
2018-02-11T19:33:11.493Z,3.50
2018-02-11T19:35:39.748Z,3.50
2018-02-11T19:38:08.036Z,3.50
2018-02-11T19:40:35.507Z,3.40
2018-02-11T19:43:03.016Z,3.40
2018-02-11T19:45:30.510Z,3.40
2018-02-11T19:47:58.085Z,3.40
2018-02-11T19:50:25.516Z,3.40
2018-02-11T19:52:52.962Z,3.40
2018-02-11T19:55:20.490Z,3.40
2018-02-11T19:57:47.953Z,3.40
2018-02-11T20:00:15.507Z,3.40
2018-02-11T20:02:42.987Z,3.40
2018-02-11T20:05:10.470Z,3.40
2018-02-11T20:07:37.928Z,3.40
2018-02-11T20:10:05.508Z,3.30
2018-02-11T20:12:33.131Z,3.30
2018-02-11T20:15:00.593Z,3.30
2018-02-11T20:17:28.084Z,3.30
2018-02-11T20:19:55.521Z,3.20
2018-02-11T20:22:22.991Z,3.20
2018-02-11T20:24:50.502Z,3.20
2018-02-11T20:27:17.990Z,3.20
2018-02-11T20:29:45.513Z,3.20
2018-02-11T20:32:13.133Z,3.20
2018-02-11T20:34:40.759Z,3.10
2018-02-11T20:37:08.445Z,3.10
2018-02-11T20:39:35.996Z,3.10
2018-02-11T20:42:03.529Z,3.10
2018-02-11T20:44:31.047Z,3.10
2018-02-11T20:46:59.465Z,3.10
2018-02-11T20:49:26.943Z,3.10
2018-02-11T20:51:54.467Z,3.10
2018-02-11T20:54:22.038Z,3.10
2018-02-11T20:56:49.561Z,3.10
2018-02-11T20:59:17.122Z,3.20
2018-02-11T21:01:44.591Z,3.20
2018-02-11T21:04:12.100Z,3.20
2018-02-11T21:06:39.572Z,3.10
2018-02-11T21:09:07.051Z,3.10
2018-02-11T21:11:34.561Z,3.20
2018-02-11T21:14:02.027Z,3.20
2018-02-11T21:16:29.575Z,3.20
2018-02-11T21:18:57.276Z,3.20
2018-02-11T21:21:24.755Z,3.20
2018-02-11T21:23:52.238Z,3.20
2018-02-11T21:26:19.726Z,3.20
2018-02-11T21:28:47.986Z,3.20
2018-02-11T21:31:15.503Z,3.20
2018-02-11T21:33:42.959Z,3.20
2018-02-11T21:36:10.403Z,3.10
2018-02-11T21:38:38.124Z,3.00
2018-02-11T21:41:05.614Z,2.90
2018-02-11T21:43:33.100Z,2.90
2018-02-11T21:46:00.842Z,2.80
2018-02-11T21:48:28.527Z,2.80
2018-02-11T21:50:55.970Z,2.80
2018-02-11T21:53:23.738Z,2.80
2018-02-11T21:55:51.198Z,2.70
2018-02-11T21:58:18.674Z,2.60
2018-02-11T22:00:47.008Z,2.60
2018-02-11T22:03:14.516Z,2.60
2018-02-11T22:05:42.793Z,2.50
2018-02-11T22:08:11.063Z,2.60
2018-02-11T22:10:39.316Z,2.50
2018-02-11T22:13:06.802Z,2.50
2018-02-11T22:15:35.126Z,2.50
2018-02-11T22:18:02.610Z,2.40
2018-02-11T22:20:30.272Z,2.50
2018-02-11T22:22:57.830Z,2.40
2018-02-11T22:25:25.313Z,2.40
2018-02-11T22:27:53.575Z,2.40
2018-02-11T22:30:21.059Z,2.40
2018-02-11T22:32:49.446Z,2.40
2018-02-11T22:35:17.712Z,2.40
2018-02-11T22:37:45.185Z,2.40
2018-02-11T22:40:13.643Z,2.40
2018-02-11T22:42:41.101Z,2.40
2018-02-11T22:45:08.730Z,2.40
2018-02-11T22:47:36.209Z,2.40
2018-02-11T22:50:03.678Z,2.40
2018-02-11T22:52:31.194Z,2.40
2018-02-11T22:54:58.671Z,2.40
2018-02-11T22:57:26.196Z,2.40
2018-02-11T22:59:53.796Z,2.50
2018-02-11T23:02:21.262Z,2.60
2018-02-11T23:04:48.740Z,2.60
2018-02-11T23:07:17.234Z,2.70
2018-02-11T23:09:45.499Z,2.70
2018-02-11T23:12:13.007Z,2.60
2018-02-11T23:14:40.495Z,2.70
2018-02-11T23:17:07.981Z,2.70
2018-02-11T23:19:47.898Z,2.70
2018-02-11T23:22:15.395Z,2.70
2018-02-11T23:24:43.686Z,2.70
2018-02-11T23:27:11.933Z,2.70
2018-02-11T23:29:39.394Z,2.70
2018-02-11T23:32:06.892Z,2.70
2018-02-11T23:34:35.131Z,2.80
2018-02-11T23:37:02.690Z,2.80
2018-02-11T23:39:30.203Z,2.80
2018-02-11T23:41:57.665Z,2.80
2018-02-11T23:44:25.127Z,2.80
2018-02-11T23:46:52.619Z,2.90
2018-02-11T23:49:20.186Z,3.00
2018-02-11T23:51:47.702Z,3.00
2018-02-11T23:54:15.283Z,3.00
2018-02-11T23:56:42.740Z,3.00
2018-02-11T23:59:10.223Z,3.00
